sensor_id;sensor_type;location;lat;lon;timestamp;P1;durP1;ratioP1;P2;durP2;ratioP2
70744;SDS011;59284;31.390;34.904;2022-09-30T00:01:33;10.07;;;1.60;;
70744;SDS011;59284;31.390;34.904;2022-09-30T00:04:00;8.93;;;1.33;;
70744;SDS011;59284;31.390;34.904;2022-09-30T00:06:26;10.77;;;1.70;;
70744;SDS011;59284;31.390;34.904;2022-09-30T00:08:53;9.75;;;2.05;;
70744;SDS011;59284;31.390;34.904;2022-09-30T00:11:21;7.72;;;1.40;;
70744;SDS011;59284;31.390;34.904;2022-09-30T00:13:50;9.27;;;1.50;;
70744;SDS011;59284;31.390;34.904;2022-09-30T00:16:18;9.35;;;1.55;;
70744;SDS011;59284;31.390;34.904;2022-09-30T00:18:47;13.70;;;1.80;;
70744;SDS011;59284;31.390;34.904;2022-09-30T00:21:14;13.77;;;1.42;;
70744;SDS011;59284;31.390;34.904;2022-09-30T00:23:42;12.85;;;1.52;;
70744;SDS011;59284;31.390;34.904;2022-09-30T00:26:13;10.23;;;1.80;;
70744;SDS011;59284;31.390;34.904;2022-09-30T00:28:41;16.75;;;1.50;;
70744;SDS011;59284;31.390;34.904;2022-09-30T00:31:09;11.93;;;2.10;;
70744;SDS011;59284;31.390;34.904;2022-09-30T00:33:36;14.82;;;1.85;;
70744;SDS011;59284;31.390;34.904;2022-09-30T00:36:02;8.93;;;2.08;;
70744;SDS011;59284;31.390;34.904;2022-09-30T00:38:28;9.83;;;1.60;;
70744;SDS011;59284;31.390;34.904;2022-09-30T00:40:55;10.85;;;1.38;;
70744;SDS011;59284;31.390;34.904;2022-09-30T00:43:41;14.50;;;2.25;;
70744;SDS011;59284;31.390;34.904;2022-09-30T00:46:18;7.63;;;1.48;;
70744;SDS011;59284;31.390;34.904;2022-09-30T00:48:50;12.88;;;1.88;;
70744;SDS011;59284;31.390;34.904;2022-09-30T00:54:17;11.02;;;1.63;;
70744;SDS011;59284;31.390;34.904;2022-09-30T00:56:56;11.13;;;1.60;;
70744;SDS011;59284;31.390;34.904;2022-09-30T00:59:29;11.50;;;1.90;;
70744;SDS011;59284;31.390;34.904;2022-09-30T01:01:58;6.90;;;1.35;;
70744;SDS011;59284;31.390;34.904;2022-09-30T01:04:28;12.40;;;2.37;;
70744;SDS011;59284;31.390;34.904;2022-09-30T01:07:04;8.57;;;1.83;;
70744;SDS011;59284;31.390;34.904;2022-09-30T01:09:35;9.13;;;1.48;;
70744;SDS011;59284;31.390;34.904;2022-09-30T01:12:08;9.88;;;1.80;;
70744;SDS011;59284;31.390;34.904;2022-09-30T01:14:40;12.15;;;1.65;;
70744;SDS011;59284;31.390;34.904;2022-09-30T01:22:36;11.68;;;1.63;;
70744;SDS011;59284;31.390;34.904;2022-09-30T01:30:52;16.03;;;2.03;;
70744;SDS011;59284;31.390;34.904;2022-09-30T01:33:31;10.93;;;1.58;;
70744;SDS011;59284;31.390;34.904;2022-09-30T01:41:25;10.27;;;1.90;;
70744;SDS011;59284;31.390;34.904;2022-09-30T01:47:06;6.97;;;1.50;;
70744;SDS011;59284;31.390;34.904;2022-09-30T01:49:43;10.02;;;1.67;;
70744;SDS011;59284;31.390;34.904;2022-09-30T01:52:22;7.80;;;1.77;;
70744;SDS011;59284;31.390;34.904;2022-09-30T02:00:25;9.32;;;1.48;;
70744;SDS011;59284;31.390;34.904;2022-09-30T02:02:58;8.57;;;1.60;;
70744;SDS011;59284;31.390;34.904;2022-09-30T02:05:34;8.32;;;1.70;;
70744;SDS011;59284;31.390;34.904;2022-09-30T02:08:07;7.70;;;1.30;;
70744;SDS011;59284;31.390;34.904;2022-09-30T02:10:59;12.95;;;1.70;;
70744;SDS011;59284;31.390;34.904;2022-09-30T02:16:47;12.55;;;1.80;;
70744;SDS011;59284;31.390;34.904;2022-09-30T02:19:21;6.53;;;1.67;;
70744;SDS011;59284;31.390;34.904;2022-09-30T02:21:52;6.93;;;1.47;;
70744;SDS011;59284;31.390;34.904;2022-09-30T02:24:25;6.97;;;1.30;;
70744;SDS011;59284;31.390;34.904;2022-09-30T02:26:56;9.13;;;1.50;;
70744;SDS011;59284;31.390;34.904;2022-09-30T02:29:27;11.38;;;2.13;;
70744;SDS011;59284;31.390;34.904;2022-09-30T02:32:20;11.15;;;1.70;;
70744;SDS011;59284;31.390;34.904;2022-09-30T02:35:05;8.73;;;1.83;;
70744;SDS011;59284;31.390;34.904;2022-09-30T02:37:46;8.48;;;1.85;;
70744;SDS011;59284;31.390;34.904;2022-09-30T02:40:28;11.73;;;1.40;;
70744;SDS011;59284;31.390;34.904;2022-09-30T02:43:03;11.48;;;1.55;;
70744;SDS011;59284;31.390;34.904;2022-09-30T02:45:30;7.88;;;1.60;;
70744;SDS011;59284;31.390;34.904;2022-09-30T02:48:13;11.37;;;1.47;;
70744;SDS011;59284;31.390;34.904;2022-09-30T02:50:46;12.05;;;1.98;;
70744;SDS011;59284;31.390;34.904;2022-09-30T02:53:25;14.18;;;1.63;;
70744;SDS011;59284;31.390;34.904;2022-09-30T02:58:42;10.63;;;1.40;;
70744;SDS011;59284;31.390;34.904;2022-09-30T03:01:11;8.63;;;1.50;;
70744;SDS011;59284;31.390;34.904;2022-09-30T03:06:21;8.13;;;1.70;;
70744;SDS011;59284;31.390;34.904;2022-09-30T03:08:47;11.10;;;1.88;;
70744;SDS011;59284;31.390;34.904;2022-09-30T03:11:17;13.23;;;2.03;;
70744;SDS011;59284;31.390;34.904;2022-09-30T03:24:59;15.87;;;3.23;;
70744;SDS011;59284;31.390;34.904;2022-09-30T03:28:02;12.27;;;2.83;;
70744;SDS011;59284;31.390;34.904;2022-09-30T03:30:50;14.02;;;2.50;;
70744;SDS011;59284;31.390;34.904;2022-09-30T03:36:39;15.00;;;3.20;;
70744;SDS011;59284;31.390;34.904;2022-09-30T03:39:15;10.77;;;2.53;;
70744;SDS011;59284;31.390;34.904;2022-09-30T03:42:04;14.27;;;2.80;;
70744;SDS011;59284;31.390;34.904;2022-09-30T03:44:38;13.05;;;3.03;;
70744;SDS011;59284;31.390;34.904;2022-09-30T03:47:26;9.90;;;2.40;;
70744;SDS011;59284;31.390;34.904;2022-09-30T03:49:58;12.98;;;2.50;;
70744;SDS011;59284;31.390;34.904;2022-09-30T03:52:26;14.83;;;2.77;;
70744;SDS011;59284;31.390;34.904;2022-09-30T03:54:56;12.68;;;2.42;;
70744;SDS011;59284;31.390;34.904;2022-09-30T03:57:28;9.13;;;2.15;;
70744;SDS011;59284;31.390;34.904;2022-09-30T03:59:54;12.25;;;2.25;;
70744;SDS011;59284;31.390;34.904;2022-09-30T04:02:21;12.38;;;2.83;;
70744;SDS011;59284;31.390;34.904;2022-09-30T04:04:48;8.60;;;2.17;;
70744;SDS011;59284;31.390;34.904;2022-09-30T04:07:15;10.80;;;2.38;;
70744;SDS011;59284;31.390;34.904;2022-09-30T04:09:42;9.00;;;1.90;;
70744;SDS011;59284;31.390;34.904;2022-09-30T04:12:08;10.77;;;2.10;;
70744;SDS011;59284;31.390;34.904;2022-09-30T04:14:34;13.00;;;2.00;;
70744;SDS011;59284;31.390;34.904;2022-09-30T04:17:00;9.40;;;1.70;;
70744;SDS011;59284;31.390;34.904;2022-09-30T04:19:26;11.13;;;2.20;;
70744;SDS011;59284;31.390;34.904;2022-09-30T04:21:52;9.20;;;1.80;;
70744;SDS011;59284;31.390;34.904;2022-09-30T04:24:19;8.15;;;1.92;;
70744;SDS011;59284;31.390;34.904;2022-09-30T04:26:45;5.72;;;1.85;;
70744;SDS011;59284;31.390;34.904;2022-09-30T04:29:11;7.30;;;1.53;;
70744;SDS011;59284;31.390;34.904;2022-09-30T04:31:37;9.27;;;1.63;;
70744;SDS011;59284;31.390;34.904;2022-09-30T04:34:02;8.97;;;1.93;;
70744;SDS011;59284;31.390;34.904;2022-09-30T04:36:28;10.13;;;1.98;;
70744;SDS011;59284;31.390;34.904;2022-09-30T04:38:54;10.47;;;1.77;;
70744;SDS011;59284;31.390;34.904;2022-09-30T04:41:19;11.38;;;1.52;;
70744;SDS011;59284;31.390;34.904;2022-09-30T04:43:45;9.50;;;2.00;;
70744;SDS011;59284;31.390;34.904;2022-09-30T04:46:12;11.98;;;2.20;;
70744;SDS011;59284;31.390;34.904;2022-09-30T04:48:42;11.60;;;1.92;;
70744;SDS011;59284;31.390;34.904;2022-09-30T04:51:12;13.00;;;1.85;;
70744;SDS011;59284;31.390;34.904;2022-09-30T04:53:43;15.23;;;2.20;;
70744;SDS011;59284;31.390;34.904;2022-09-30T04:56:09;9.77;;;2.10;;
70744;SDS011;59284;31.390;34.904;2022-09-30T04:58:35;14.57;;;1.98;;
70744;SDS011;59284;31.390;34.904;2022-09-30T05:01:08;16.25;;;1.60;;
70744;SDS011;59284;31.390;34.904;2022-09-30T05:03:35;16.77;;;2.00;;
70744;SDS011;59284;31.390;34.904;2022-09-30T05:06:02;9.83;;;1.60;;
70744;SDS011;59284;31.390;34.904;2022-09-30T05:08:28;17.10;;;1.98;;
70744;SDS011;59284;31.390;34.904;2022-09-30T05:10:55;10.23;;;1.85;;
70744;SDS011;59284;31.390;34.904;2022-09-30T05:13:22;10.95;;;2.00;;
70744;SDS011;59284;31.390;34.904;2022-09-30T05:15:54;11.00;;;2.20;;
70744;SDS011;59284;31.390;34.904;2022-09-30T05:18:20;30.83;;;3.38;;
70744;SDS011;59284;31.390;34.904;2022-09-30T05:20:49;15.65;;;2.42;;
70744;SDS011;59284;31.390;34.904;2022-09-30T05:23:16;14.95;;;3.13;;
70744;SDS011;59284;31.390;34.904;2022-09-30T05:25:43;20.97;;;2.83;;
70744;SDS011;59284;31.390;34.904;2022-09-30T05:28:08;15.75;;;2.85;;
70744;SDS011;59284;31.390;34.904;2022-09-30T05:30:34;14.80;;;2.43;;
70744;SDS011;59284;31.390;34.904;2022-09-30T05:32:59;11.82;;;2.40;;
70744;SDS011;59284;31.390;34.904;2022-09-30T05:35:25;13.07;;;1.77;;
70744;SDS011;59284;31.390;34.904;2022-09-30T05:37:51;11.68;;;2.65;;
70744;SDS011;59284;31.390;34.904;2022-09-30T05:40:16;15.77;;;2.67;;
70744;SDS011;59284;31.390;34.904;2022-09-30T05:42:42;24.13;;;3.67;;
70744;SDS011;59284;31.390;34.904;2022-09-30T05:45:11;23.70;;;5.00;;
70744;SDS011;59284;31.390;34.904;2022-09-30T05:47:38;26.80;;;3.75;;
70744;SDS011;59284;31.390;34.904;2022-09-30T05:50:06;17.65;;;3.78;;
70744;SDS011;59284;31.390;34.904;2022-09-30T05:52:32;31.30;;;7.20;;
70744;SDS011;59284;31.390;34.904;2022-09-30T05:54:58;29.40;;;4.20;;
70744;SDS011;59284;31.390;34.904;2022-09-30T05:57:28;14.75;;;3.10;;
70744;SDS011;59284;31.390;34.904;2022-09-30T05:59:55;21.23;;;3.25;;
70744;SDS011;59284;31.390;34.904;2022-09-30T06:02:22;20.35;;;3.38;;
70744;SDS011;59284;31.390;34.904;2022-09-30T06:04:48;21.27;;;2.83;;
70744;SDS011;59284;31.390;34.904;2022-09-30T06:07:14;18.65;;;3.08;;
70744;SDS011;59284;31.390;34.904;2022-09-30T06:09:41;19.92;;;2.75;;
70744;SDS011;59284;31.390;34.904;2022-09-30T06:12:07;17.15;;;3.22;;
70744;SDS011;59284;31.390;34.904;2022-09-30T06:14:33;23.17;;;3.28;;
70744;SDS011;59284;31.390;34.904;2022-09-30T06:16:58;21.40;;;2.60;;
70744;SDS011;59284;31.390;34.904;2022-09-30T06:19:25;14.73;;;2.25;;
70744;SDS011;59284;31.390;34.904;2022-09-30T06:21:54;17.93;;;2.60;;
70744;SDS011;59284;31.390;34.904;2022-09-30T06:24:21;12.10;;;2.30;;
70744;SDS011;59284;31.390;34.904;2022-09-30T06:26:46;11.82;;;2.08;;
70744;SDS011;59284;31.390;34.904;2022-09-30T06:29:13;9.73;;;2.15;;
70744;SDS011;59284;31.390;34.904;2022-09-30T06:31:40;10.33;;;2.30;;
70744;SDS011;59284;31.390;34.904;2022-09-30T06:34:08;14.07;;;3.28;;
70744;SDS011;59284;31.390;34.904;2022-09-30T06:36:34;14.00;;;2.97;;
70744;SDS011;59284;31.390;34.904;2022-09-30T06:39:00;9.67;;;2.37;;
70744;SDS011;59284;31.390;34.904;2022-09-30T06:41:26;13.30;;;2.25;;
70744;SDS011;59284;31.390;34.904;2022-09-30T06:43:54;11.65;;;2.70;;
70744;SDS011;59284;31.390;34.904;2022-09-30T06:46:20;13.52;;;2.08;;
70744;SDS011;59284;31.390;34.904;2022-09-30T06:48:54;9.48;;;2.15;;
70744;SDS011;59284;31.390;34.904;2022-09-30T06:51:21;6.97;;;1.90;;
70744;SDS011;59284;31.390;34.904;2022-09-30T06:53:50;14.32;;;2.63;;
70744;SDS011;59284;31.390;34.904;2022-09-30T06:56:18;18.63;;;3.05;;
70744;SDS011;59284;31.390;34.904;2022-09-30T06:58:44;10.57;;;2.25;;
70744;SDS011;59284;31.390;34.904;2022-09-30T07:01:11;8.43;;;2.60;;
70744;SDS011;59284;31.390;34.904;2022-09-30T07:03:39;8.83;;;2.00;;
70744;SDS011;59284;31.390;34.904;2022-09-30T07:06:13;7.35;;;2.00;;
70744;SDS011;59284;31.390;34.904;2022-09-30T07:08:39;8.95;;;2.20;;
70744;SDS011;59284;31.390;34.904;2022-09-30T07:11:06;11.77;;;2.10;;
70744;SDS011;59284;31.390;34.904;2022-09-30T07:13:44;15.73;;;2.27;;
70744;SDS011;59284;31.390;34.904;2022-09-30T07:16:11;15.60;;;2.38;;
70744;SDS011;59284;31.390;34.904;2022-09-30T07:18:39;9.50;;;1.98;;
70744;SDS011;59284;31.390;34.904;2022-09-30T07:21:09;15.52;;;2.88;;
70744;SDS011;59284;31.390;34.904;2022-09-30T07:23:38;9.15;;;2.90;;
70744;SDS011;59284;31.390;34.904;2022-09-30T07:26:09;8.43;;;1.87;;
70744;SDS011;59284;31.390;34.904;2022-09-30T07:28:35;11.93;;;2.13;;
70744;SDS011;59284;31.390;34.904;2022-09-30T07:31:07;12.95;;;2.58;;
70744;SDS011;59284;31.390;34.904;2022-09-30T07:33:45;12.53;;;2.13;;
70744;SDS011;59284;31.390;34.904;2022-09-30T07:36:13;6.93;;;2.17;;
70744;SDS011;59284;31.390;34.904;2022-09-30T07:38:43;11.43;;;2.65;;
70744;SDS011;59284;31.390;34.904;2022-09-30T07:41:11;8.07;;;2.50;;
70744;SDS011;59284;31.390;34.904;2022-09-30T07:43:42;14.15;;;2.72;;
70744;SDS011;59284;31.390;34.904;2022-09-30T07:46:10;13.97;;;2.70;;
70744;SDS011;59284;31.390;34.904;2022-09-30T07:48:39;9.57;;;2.33;;
70744;SDS011;59284;31.390;34.904;2022-09-30T07:53:41;13.35;;;2.47;;
70744;SDS011;59284;31.390;34.904;2022-09-30T07:56:08;14.00;;;2.88;;
70744;SDS011;59284;31.390;34.904;2022-09-30T07:58:40;14.43;;;2.70;;
70744;SDS011;59284;31.390;34.904;2022-09-30T08:01:06;9.57;;;2.70;;
70744;SDS011;59284;31.390;34.904;2022-09-30T08:03:37;13.23;;;2.90;;
70744;SDS011;59284;31.390;34.904;2022-09-30T08:06:07;11.05;;;2.70;;
70744;SDS011;59284;31.390;34.904;2022-09-30T08:08:35;10.50;;;2.70;;
70744;SDS011;59284;31.390;34.904;2022-09-30T08:11:01;12.50;;;2.50;;
70744;SDS011;59284;31.390;34.904;2022-09-30T08:13:28;9.77;;;2.80;;
70744;SDS011;59284;31.390;34.904;2022-09-30T08:15:55;8.70;;;2.72;;
70744;SDS011;59284;31.390;34.904;2022-09-30T08:18:21;12.27;;;3.67;;
70744;SDS011;59284;31.390;34.904;2022-09-30T08:20:47;13.87;;;3.20;;
70744;SDS011;59284;31.390;34.904;2022-09-30T08:23:13;10.95;;;3.15;;
70744;SDS011;59284;31.390;34.904;2022-09-30T08:25:38;12.73;;;3.13;;
70744;SDS011;59284;31.390;34.904;2022-09-30T08:28:04;11.97;;;3.20;;
70744;SDS011;59284;31.390;34.904;2022-09-30T08:30:30;10.48;;;3.13;;
70744;SDS011;59284;31.390;34.904;2022-09-30T08:32:56;10.07;;;3.00;;
70744;SDS011;59284;31.390;34.904;2022-09-30T08:35:22;12.95;;;3.15;;
70744;SDS011;59284;31.390;34.904;2022-09-30T08:37:48;14.37;;;3.20;;
70744;SDS011;59284;31.390;34.904;2022-09-30T08:40:20;10.55;;;3.10;;
70744;SDS011;59284;31.390;34.904;2022-09-30T08:42:53;15.20;;;3.85;;
70744;SDS011;59284;31.390;34.904;2022-09-30T08:48:13;10.82;;;3.42;;
70744;SDS011;59284;31.390;34.904;2022-09-30T08:53:49;11.63;;;3.63;;
70744;SDS011;59284;31.390;34.904;2022-09-30T08:56:23;20.25;;;3.97;;
70744;SDS011;59284;31.390;34.904;2022-09-30T08:58:55;10.60;;;3.25;;
70744;SDS011;59284;31.390;34.904;2022-09-30T09:01:35;14.00;;;3.78;;
70744;SDS011;59284;31.390;34.904;2022-09-30T09:04:08;12.60;;;3.40;;
70744;SDS011;59284;31.390;34.904;2022-09-30T09:06:50;13.65;;;3.45;;
70744;SDS011;59284;31.390;34.904;2022-09-30T09:09:26;15.82;;;4.13;;
70744;SDS011;59284;31.390;34.904;2022-09-30T09:17:29;16.27;;;3.47;;
70744;SDS011;59284;31.390;34.904;2022-09-30T09:20:16;13.20;;;3.63;;
70744;SDS011;59284;31.390;34.904;2022-09-30T09:23:01;11.02;;;3.42;;
70744;SDS011;59284;31.390;34.904;2022-09-30T09:25:33;13.65;;;3.75;;
70744;SDS011;59284;31.390;34.904;2022-09-30T09:28:00;16.10;;;3.90;;
70744;SDS011;59284;31.390;34.904;2022-09-30T09:30:44;10.60;;;3.60;;
70744;SDS011;59284;31.390;34.904;2022-09-30T09:33:22;8.60;;;3.55;;
70744;SDS011;59284;31.390;34.904;2022-09-30T09:47:53;12.00;;;3.60;;
70744;SDS011;59284;31.390;34.904;2022-09-30T09:50:43;11.13;;;3.75;;
70744;SDS011;59284;31.390;34.904;2022-09-30T09:56:16;14.45;;;3.60;;
70744;SDS011;59284;31.390;34.904;2022-09-30T10:01:52;11.23;;;3.47;;
70744;SDS011;59284;31.390;34.904;2022-09-30T10:04:24;16.63;;;3.80;;
70744;SDS011;59284;31.390;34.904;2022-09-30T10:06:58;11.70;;;3.85;;
70744;SDS011;59284;31.390;34.904;2022-09-30T10:09:30;17.08;;;4.00;;
70744;SDS011;59284;31.390;34.904;2022-09-30T10:12:16;21.60;;;3.33;;
70744;SDS011;59284;31.390;34.904;2022-09-30T10:15:14;15.55;;;3.15;;
70744;SDS011;59284;31.390;34.904;2022-09-30T10:17:57;12.85;;;3.20;;
70744;SDS011;59284;31.390;34.904;2022-09-30T10:20:33;14.45;;;3.85;;
70744;SDS011;59284;31.390;34.904;2022-09-30T10:23:07;14.27;;;3.40;;
70744;SDS011;59284;31.390;34.904;2022-09-30T10:25:53;12.67;;;3.50;;
70744;SDS011;59284;31.390;34.904;2022-09-30T10:28:29;13.40;;;3.42;;
70744;SDS011;59284;31.390;34.904;2022-09-30T10:36:40;11.98;;;3.65;;
70744;SDS011;59284;31.390;34.904;2022-09-30T10:39:54;17.77;;;3.43;;
70744;SDS011;59284;31.390;34.904;2022-09-30T10:42:09;13.10;;;3.75;;
70744;SDS011;59284;31.390;34.904;2022-09-30T10:44:46;10.70;;;4.30;;
70744;SDS011;59284;31.390;34.904;2022-09-30T10:47:21;10.13;;;3.95;;
70744;SDS011;59284;31.390;34.904;2022-09-30T10:52:38;13.17;;;3.90;;
70744;SDS011;59284;31.390;34.904;2022-09-30T10:55:32;12.57;;;4.38;;
70744;SDS011;59284;31.390;34.904;2022-09-30T10:58:19;14.38;;;3.83;;
70744;SDS011;59284;31.390;34.904;2022-09-30T11:01:22;15.55;;;4.13;;
70744;SDS011;59284;31.390;34.904;2022-09-30T11:06:31;16.27;;;4.17;;
70744;SDS011;59284;31.390;34.904;2022-09-30T11:09:12;12.02;;;3.90;;
70744;SDS011;59284;31.390;34.904;2022-09-30T11:11:54;13.07;;;3.72;;
70744;SDS011;59284;31.390;34.904;2022-09-30T11:14:43;16.02;;;3.95;;
70744;SDS011;59284;31.390;34.904;2022-09-30T11:20:17;15.07;;;4.10;;
70744;SDS011;59284;31.390;34.904;2022-09-30T11:26:13;13.18;;;4.07;;
70744;SDS011;59284;31.390;34.904;2022-09-30T11:48:59;18.73;;;4.53;;
70744;SDS011;59284;31.390;34.904;2022-09-30T11:58:05;11.82;;;4.18;;
70744;SDS011;59284;31.390;34.904;2022-09-30T12:00:51;14.25;;;4.05;;
70744;SDS011;59284;31.390;34.904;2022-09-30T12:03:25;16.23;;;4.77;;
70744;SDS011;59284;31.390;34.904;2022-09-30T12:06:03;15.43;;;3.70;;
70744;SDS011;59284;31.390;34.904;2022-09-30T12:09:26;17.63;;;4.15;;
70744;SDS011;59284;31.390;34.904;2022-09-30T12:12:01;10.05;;;3.58;;
70744;SDS011;59284;31.390;34.904;2022-09-30T12:17:37;15.23;;;3.87;;
70744;SDS011;59284;31.390;34.904;2022-09-30T12:20:33;12.75;;;4.28;;
70744;SDS011;59284;31.390;34.904;2022-09-30T12:23:08;14.68;;;4.30;;
70744;SDS011;59284;31.390;34.904;2022-09-30T12:25:53;15.38;;;3.88;;
70744;SDS011;59284;31.390;34.904;2022-09-30T12:45:08;12.57;;;3.70;;
70744;SDS011;59284;31.390;34.904;2022-09-30T12:50:49;10.60;;;3.40;;
70744;SDS011;59284;31.390;34.904;2022-09-30T12:53:23;15.13;;;3.83;;
70744;SDS011;59284;31.390;34.904;2022-09-30T12:55:52;10.57;;;3.85;;
70744;SDS011;59284;31.390;34.904;2022-09-30T12:58:25;17.73;;;3.83;;
70744;SDS011;59284;31.390;34.904;2022-09-30T13:01:02;10.95;;;3.47;;
70744;SDS011;59284;31.390;34.904;2022-09-30T13:06:12;14.18;;;3.92;;
70744;SDS011;59284;31.390;34.904;2022-09-30T13:08:46;10.90;;;3.80;;
70744;SDS011;59284;31.390;34.904;2022-09-30T13:11:42;16.73;;;3.80;;
70744;SDS011;59284;31.390;34.904;2022-09-30T13:14:50;13.88;;;3.40;;
70744;SDS011;59284;31.390;34.904;2022-09-30T13:19:37;10.40;;;3.03;;
70744;SDS011;59284;31.390;34.904;2022-09-30T13:40:40;11.73;;;2.67;;
70744;SDS011;59284;31.390;34.904;2022-09-30T13:43:25;7.13;;;2.13;;
70744;SDS011;59284;31.390;34.904;2022-09-30T13:45:57;9.18;;;2.50;;
70744;SDS011;59284;31.390;34.904;2022-09-30T13:48:29;9.02;;;2.20;;
70744;SDS011;59284;31.390;34.904;2022-09-30T13:51:02;10.20;;;2.83;;
70744;SDS011;59284;31.390;34.904;2022-09-30T13:53:35;11.20;;;2.53;;
70744;SDS011;59284;31.390;34.904;2022-09-30T13:56:12;6.38;;;1.98;;
70744;SDS011;59284;31.390;34.904;2022-09-30T14:01:47;12.95;;;2.72;;
70744;SDS011;59284;31.390;34.904;2022-09-30T14:04:47;12.98;;;3.10;;
70744;SDS011;59284;31.390;34.904;2022-09-30T14:07:31;13.13;;;2.87;;
70744;SDS011;59284;31.390;34.904;2022-09-30T14:16:23;10.90;;;2.00;;
70744;SDS011;59284;31.390;34.904;2022-09-30T14:24:10;14.57;;;2.78;;
70744;SDS011;59284;31.390;34.904;2022-09-30T14:32:13;12.13;;;2.40;;
70744;SDS011;59284;31.390;34.904;2022-09-30T14:34:44;11.50;;;2.37;;
70744;SDS011;59284;31.390;34.904;2022-09-30T14:37:18;10.18;;;2.53;;
70744;SDS011;59284;31.390;34.904;2022-09-30T14:39:53;11.65;;;2.95;;
70744;SDS011;59284;31.390;34.904;2022-09-30T14:42:25;11.38;;;2.63;;
70744;SDS011;59284;31.390;34.904;2022-09-30T14:44:56;9.13;;;2.40;;
70744;SDS011;59284;31.390;34.904;2022-09-30T14:47:36;10.13;;;2.53;;
70744;SDS011;59284;31.390;34.904;2022-09-30T14:50:08;11.98;;;2.75;;
70744;SDS011;59284;31.390;34.904;2022-09-30T14:52:43;13.70;;;2.83;;
70744;SDS011;59284;31.390;34.904;2022-09-30T14:55:24;15.07;;;2.30;;
70744;SDS011;59284;31.390;34.904;2022-09-30T14:58:40;12.50;;;2.50;;
70744;SDS011;59284;31.390;34.904;2022-09-30T15:01:28;9.37;;;2.67;;
70744;SDS011;59284;31.390;34.904;2022-09-30T15:03:50;14.80;;;2.45;;
70744;SDS011;59284;31.390;34.904;2022-09-30T15:06:20;8.68;;;2.88;;
70744;SDS011;59284;31.390;34.904;2022-09-30T15:08:48;13.88;;;2.53;;
70744;SDS011;59284;31.390;34.904;2022-09-30T15:11:19;16.13;;;2.50;;
70744;SDS011;59284;31.390;34.904;2022-09-30T15:13:47;6.70;;;2.33;;
70744;SDS011;59284;31.390;34.904;2022-09-30T15:16:22;13.93;;;2.65;;
70744;SDS011;59284;31.390;34.904;2022-09-30T15:18:52;13.63;;;2.55;;
70744;SDS011;59284;31.390;34.904;2022-09-30T15:21:19;14.35;;;2.83;;
70744;SDS011;59284;31.390;34.904;2022-09-30T15:23:47;11.82;;;3.30;;
70744;SDS011;59284;31.390;34.904;2022-09-30T15:26:18;11.93;;;3.20;;
70744;SDS011;59284;31.390;34.904;2022-09-30T15:28:46;17.42;;;2.70;;
70744;SDS011;59284;31.390;34.904;2022-09-30T15:31:17;9.68;;;2.42;;
70744;SDS011;59284;31.390;34.904;2022-09-30T15:34:12;10.23;;;2.58;;
70744;SDS011;59284;31.390;34.904;2022-09-30T15:36:40;9.85;;;2.95;;
70744;SDS011;59284;31.390;34.904;2022-09-30T15:39:27;10.50;;;3.10;;
70744;SDS011;59284;31.390;34.904;2022-09-30T15:42:36;14.45;;;3.10;;
70744;SDS011;59284;31.390;34.904;2022-09-30T15:47:55;12.35;;;3.78;;
70744;SDS011;59284;31.390;34.904;2022-09-30T15:56:15;11.57;;;4.40;;
70744;SDS011;59284;31.390;34.904;2022-09-30T15:58:53;11.80;;;3.95;;
70744;SDS011;59284;31.390;34.904;2022-09-30T16:01:23;14.07;;;5.03;;
70744;SDS011;59284;31.390;34.904;2022-09-30T16:09:17;34.70;;;15.50;;
70744;SDS011;59284;31.390;34.904;2022-09-30T16:14:30;48.17;;;22.38;;
70744;SDS011;59284;31.390;34.904;2022-09-30T16:17:00;48.13;;;21.48;;
70744;SDS011;59284;31.390;34.904;2022-09-30T16:19:29;40.47;;;16.40;;
70744;SDS011;59284;31.390;34.904;2022-09-30T16:21:55;23.13;;;8.00;;
70744;SDS011;59284;31.390;34.904;2022-09-30T16:26:50;25.43;;;9.43;;
70744;SDS011;59284;31.390;34.904;2022-09-30T16:29:18;16.90;;;6.45;;
70744;SDS011;59284;31.390;34.904;2022-09-30T16:31:44;19.05;;;7.25;;
70744;SDS011;59284;31.390;34.904;2022-09-30T16:34:32;11.90;;;5.32;;
70744;SDS011;59284;31.390;34.904;2022-09-30T16:37:02;17.45;;;4.43;;
70744;SDS011;59284;31.390;34.904;2022-09-30T16:39:35;14.50;;;4.70;;
70744;SDS011;59284;31.390;34.904;2022-09-30T16:42:00;13.05;;;5.05;;
70744;SDS011;59284;31.390;34.904;2022-09-30T16:44:28;15.07;;;3.85;;
70744;SDS011;59284;31.390;34.904;2022-09-30T16:47:01;16.40;;;5.57;;
70744;SDS011;59284;31.390;34.904;2022-09-30T16:49:27;15.05;;;5.88;;
70744;SDS011;59284;31.390;34.904;2022-09-30T16:51:53;82.05;;;7.03;;
70744;SDS011;59284;31.390;34.904;2022-09-30T16:54:18;23.43;;;10.97;;
70744;SDS011;59284;31.390;34.904;2022-09-30T16:56:44;13.07;;;3.27;;
70744;SDS011;59284;31.390;34.904;2022-09-30T16:59:13;11.10;;;3.28;;
70744;SDS011;59284;31.390;34.904;2022-09-30T17:01:40;11.25;;;2.90;;
70744;SDS011;59284;31.390;34.904;2022-09-30T17:04:06;11.70;;;3.00;;
70744;SDS011;59284;31.390;34.904;2022-09-30T17:06:33;8.88;;;3.08;;
70744;SDS011;59284;31.390;34.904;2022-09-30T17:09:00;17.65;;;3.75;;
70744;SDS011;59284;31.390;34.904;2022-09-30T17:11:30;10.33;;;2.33;;
70744;SDS011;59284;31.390;34.904;2022-09-30T17:13:58;15.25;;;2.47;;
70744;SDS011;59284;31.390;34.904;2022-09-30T17:16:27;16.50;;;2.35;;
70744;SDS011;59284;31.390;34.904;2022-09-30T17:18:53;12.65;;;2.58;;
70744;SDS011;59284;31.390;34.904;2022-09-30T17:21:23;9.50;;;2.20;;
70744;SDS011;59284;31.390;34.904;2022-09-30T17:23:50;11.18;;;2.45;;
70744;SDS011;59284;31.390;34.904;2022-09-30T17:26:16;16.50;;;2.10;;
70744;SDS011;59284;31.390;34.904;2022-09-30T17:28:42;12.10;;;2.10;;
70744;SDS011;59284;31.390;34.904;2022-09-30T17:31:09;9.30;;;2.65;;
70744;SDS011;59284;31.390;34.904;2022-09-30T17:33:36;11.77;;;2.17;;
70744;SDS011;59284;31.390;34.904;2022-09-30T17:36:04;11.00;;;2.47;;
70744;SDS011;59284;31.390;34.904;2022-09-30T17:38:34;12.80;;;2.40;;
70744;SDS011;59284;31.390;34.904;2022-09-30T17:41:01;10.00;;;1.92;;
70744;SDS011;59284;31.390;34.904;2022-09-30T17:43:45;10.57;;;2.40;;
70744;SDS011;59284;31.390;34.904;2022-09-30T17:46:12;12.47;;;2.43;;
70744;SDS011;59284;31.390;34.904;2022-09-30T17:48:43;11.10;;;2.50;;
70744;SDS011;59284;31.390;34.904;2022-09-30T17:51:10;11.40;;;2.30;;
70744;SDS011;59284;31.390;34.904;2022-09-30T17:53:37;11.73;;;2.70;;
70744;SDS011;59284;31.390;34.904;2022-09-30T17:56:04;15.93;;;2.30;;
70744;SDS011;59284;31.390;34.904;2022-09-30T17:58:34;11.68;;;2.40;;
70744;SDS011;59284;31.390;34.904;2022-09-30T18:01:04;14.38;;;2.47;;
70744;SDS011;59284;31.390;34.904;2022-09-30T18:03:31;9.55;;;1.90;;
70744;SDS011;59284;31.390;34.904;2022-09-30T18:05:57;18.63;;;2.70;;
70744;SDS011;59284;31.390;34.904;2022-09-30T18:08:24;15.48;;;2.63;;
70744;SDS011;59284;31.390;34.904;2022-09-30T18:10:50;18.45;;;2.63;;
70744;SDS011;59284;31.390;34.904;2022-09-30T18:13:17;22.42;;;2.60;;
70744;SDS011;59284;31.390;34.904;2022-09-30T18:15:45;21.80;;;2.37;;
70744;SDS011;59284;31.390;34.904;2022-09-30T18:18:11;15.65;;;2.58;;
70744;SDS011;59284;31.390;34.904;2022-09-30T18:20:41;22.65;;;2.63;;
70744;SDS011;59284;31.390;34.904;2022-09-30T18:23:09;19.80;;;2.67;;
70744;SDS011;59284;31.390;34.904;2022-09-30T18:25:35;15.48;;;2.28;;